Franklin, Massachusetts
Current Conditions -  °F | °C
As of 2:15 PM on Friday 28 Nov 2014 (Local Time) from KSFZ Reporting Station
Scattered Clouds Scattered Clouds  
Wind Chill: 27°   Ceiling: Unl
Heat Index: 34°   Visibility: 10mi
Dew Point: 16°   Wind: 8mph
Humidity: 48%   Direction: 310°NW
Pressure: 30.04"   Gusts: 21mph
Location:  42.09°N, 71.4°W
Report Text: KSFZ 281915Z 31007G18KT 10SM SCT037 01/M09 A3004 RMK AO1
Loading
Personal Weather Stations






























Interactive Weather Map New forecast layout! Learn more

10-Day Weather Forecast

Advertisements
Track Severe Weather on mobile